Time;durP1;ratioP1;P1;durP2;ratioP2;P2;SDS_P1;SDS_P2;PMS_P1;PMS_P2;Temp;Humidity;BMP_temperature;BMP_pressure;BME280_temperature;BME280_humidity;BME280_pressure;Samples;Min_cycle;Max_cycle;Signal;HPM_P1;HPM_P2
2022/04/27 00:01:56;;;;;;;11.63;7.32;;;;;;;;;;5091886;28;20028;-78
2022/04/27 00:04:21;;;;;;;8.82;7.03;;;;;;;;;;5091515;28;20032;-78
2022/04/27 00:06:47;;;;;;;10.20;6.55;;;;;;;;;;5092838;28;20066;-77
2022/04/27 00:09:13;;;;;;;12.00;8.10;;;;;;;;;;5092998;28;20031;-79
2022/04/27 00:11:39;;;;;;;10.32;7.25;;;;;;;;;;5072201;28;20036;-77
2022/04/27 00:14:04;;;;;;;11.32;7.00;;;;;;;;;;5093211;28;20102;-75
2022/04/27 00:16:30;;;;;;;13.20;7.65;;;;;;;;;;5092581;28;20032;-78
2022/04/27 00:18:57;;;;;;;11.48;7.80;;;;;;;;;;5091750;28;20328;-76
2022/04/27 00:21:22;;;;;;;12.77;8.40;;;;;;;;;;5091520;28;20122;-76
2022/04/27 00:23:48;;;;;;;16.73;7.78;;;;;;;;;;5094037;28;20122;-77
2022/04/27 00:26:14;;;;;;;14.77;8.40;;;;;;;;;;5090740;28;20035;-79
2022/04/27 00:28:40;;;;;;;12.80;7.40;;;;;;;;;;5091348;28;20051;-77
2022/04/27 00:31:06;;;;;;;14.13;7.97;;;;;;;;;;5092811;28;20031;-78
2022/04/27 00:33:32;;;;;;;12.35;7.75;;;;;;;;;;5092745;28;20498;-78
2022/04/27 00:35:58;;;;;;;11.88;7.65;;;;;;;;;;5092967;28;20028;-79
2022/04/27 00:38:23;;;;;;;13.57;8.23;;;;;;;;;;5074506;28;20051;-77
2022/04/27 00:40:49;;;;;;;13.20;8.13;;;;;;;;;;5090508;28;20118;-77
2022/04/27 00:43:15;;;;;;;10.60;7.80;;;;;;;;;;5091861;28;20036;-77
2022/04/27 00:45:41;;;;;;;12.98;8.70;;;;;;;;;;5092626;28;20036;-77
2022/04/27 00:48:07;;;;;;;13.73;8.40;;;;;;;;;;5092765;28;20042;-78
2022/04/27 00:50:33;;;;;;;15.88;7.97;;;;;;;;;;5092132;28;20107;-77
2022/04/27 00:53:00;;;;;;;14.82;8.10;;;;;;;;;;5090886;28;20123;-76
2022/04/27 00:55:25;;;;;;;9.80;6.82;;;;;;;;;;5092510;28;20424;-77
2022/04/27 00:57:52;;;;;;;10.77;8.07;;;;;;;;;;5090453;28;20105;-78
2022/04/27 01:00:18;;;;;;;10.45;7.28;;;;;;;;;;5091146;28;20403;-77
2022/04/27 01:02:43;;;;;;;15.25;7.97;;;;;;;;;;5091056;28;20038;-77
2022/04/27 01:05:11;;;;;;;13.60;7.85;;;;;;;;;;5090528;28;20032;-78
2022/04/27 01:07:41;;;;;;;13.37;8.33;;;;;;;;;;5091426;28;20039;-78
2022/04/27 01:10:08;;;;;;;12.10;7.82;;;;;;;;;;5091992;28;20055;-78
2022/04/27 01:12:35;;;;;;;11.88;8.00;;;;;;;;;;5091298;28;20044;-76
2022/04/27 01:15:01;;;;;;;14.98;8.57;;;;;;;;;;5091278;28;20396;-77
2022/04/27 01:17:26;;;;;;;12.85;8.05;;;;;;;;;;5089740;28;20039;-76
2022/04/27 01:19:52;;;;;;;16.17;9.00;;;;;;;;;;5091350;28;20036;-78
2022/04/27 01:22:18;;;;;;;16.63;9.38;;;;;;;;;;5089841;28;20030;-77
2022/04/27 01:24:44;;;;;;;14.43;9.57;;;;;;;;;;5090132;28;20119;-76
2022/04/27 01:27:10;;;;;;;15.70;9.10;;;;;;;;;;5091642;28;20107;-76
2022/04/27 01:29:37;;;;;;;17.23;10.17;;;;;;;;;;5091161;28;20039;-77
2022/04/27 01:32:03;;;;;;;15.33;9.67;;;;;;;;;;5089923;28;20039;-78
2022/04/27 01:34:29;;;;;;;12.90;9.55;;;;;;;;;;5090399;28;20105;-78
2022/04/27 01:36:55;;;;;;;14.97;9.50;;;;;;;;;;5089974;28;20551;-77
2022/04/27 01:39:23;;;;;;;15.07;9.93;;;;;;;;;;5091577;28;20102;-77
2022/04/27 01:41:49;;;;;;;19.63;11.07;;;;;;;;;;5090008;28;20072;-77
2022/04/27 01:44:15;;;;;;;16.40;10.13;;;;;;;;;;5091602;28;20391;-78
2022/04/27 01:46:41;;;;;;;17.33;11.17;;;;;;;;;;5091376;28;20028;-77
2022/04/27 01:49:08;;;;;;;20.43;10.93;;;;;;;;;;5090896;28;20450;-76
2022/04/27 01:54:32;;;;;;;16.60;10.33;;;;;;;;;;5081778;28;20089;-75
2022/04/27 01:56:59;;;;;;;17.87;10.70;;;;;;;;;;5088342;28;20395;-76
2022/04/27 01:59:24;;;;;;;17.10;10.30;;;;;;;;;;5090120;28;20038;-78
2022/04/27 02:01:50;;;;;;;15.73;10.17;;;;;;;;;;5090885;28;20020;-79
2022/04/27 02:04:16;;;;;;;17.93;10.77;;;;;;;;;;5091380;28;20222;-77
2022/04/27 02:06:42;;;;;;;15.20;10.27;;;;;;;;;;5091402;28;20187;-78
2022/04/27 02:09:08;;;;;;;17.33;10.03;;;;;;;;;;5089785;28;20133;-78
2022/04/27 02:11:33;;;;;;;15.03;9.53;;;;;;;;;;5088340;28;20034;-78
2022/04/27 02:14:00;;;;;;;15.90;9.80;;;;;;;;;;5090764;28;20052;-78
2022/04/27 02:16:27;;;;;;;18.53;9.53;;;;;;;;;;5090834;28;20055;-78
2022/04/27 02:18:52;;;;;;;17.63;10.67;;;;;;;;;;5090382;28;20050;-79
2022/04/27 02:21:18;;;;;;;16.57;10.43;;;;;;;;;;5087259;28;20032;-77
2022/04/27 02:23:47;;;;;;;16.20;10.27;;;;;;;;;;5088823;28;20475;-78
2022/04/27 02:26:14;;;;;;;25.80;11.10;;;;;;;;;;5088925;28;20118;-78
2022/04/27 02:28:39;;;;;;;17.57;10.03;;;;;;;;;;5089743;28;20043;-78
2022/04/27 02:31:05;;;;;;;19.40;10.43;;;;;;;;;;5089993;28;20022;-77
2022/04/27 02:33:31;;;;;;;16.30;11.03;;;;;;;;;;5071703;28;20101;-77
2022/04/27 02:35:58;;;;;;;15.93;10.33;;;;;;;;;;5090368;28;20089;-77
2022/04/27 02:38:23;;;;;;;17.10;10.70;;;;;;;;;;5089166;28;20547;-78
2022/04/27 02:40:49;;;;;;;14.70;9.93;;;;;;;;;;5091464;28;20107;-76
2022/04/27 02:43:15;;;;;;;16.43;10.47;;;;;;;;;;5089309;28;20227;-78
2022/04/27 02:45:41;;;;;;;22.27;10.27;;;;;;;;;;5090700;28;20541;-78
2022/04/27 02:48:07;;;;;;;16.73;10.63;;;;;;;;;;5090308;28;20032;-77
2022/04/27 02:53:18;;;;;;;19.10;11.40;;;;;;;;;;5091212;28;20031;-76
2022/04/27 02:55:44;;;;;;;16.97;10.47;;;;;;;;;;5089730;28;20036;-80
2022/04/27 02:58:10;;;;;;;15.73;9.90;;;;;;;;;;5088908;28;20028;-76
2022/04/27 03:00:35;;;;;;;19.83;10.90;;;;;;;;;;5089999;28;20028;-75
2022/04/27 03:03:01;;;;;;;20.50;9.97;;;;;;;;;;5089817;28;20517;-77
2022/04/27 03:05:26;;;;;;;17.20;10.03;;;;;;;;;;5087772;28;20110;-79
2022/04/27 03:07:52;;;;;;;17.90;10.67;;;;;;;;;;5088392;28;20067;-78
2022/04/27 03:10:17;;;;;;;18.67;11.17;;;;;;;;;;5092132;28;20027;-77
2022/04/27 03:12:43;;;;;;;22.80;12.07;;;;;;;;;;5089611;28;20415;-78
2022/04/27 03:15:09;;;;;;;16.17;10.27;;;;;;;;;;5071988;28;20495;-77
2022/04/27 03:17:35;;;;;;;20.73;12.20;;;;;;;;;;5088130;28;20190;-79
2022/04/27 03:20:01;;;;;;;19.97;11.13;;;;;;;;;;5090320;28;20040;-75
2022/04/27 03:22:26;;;;;;;19.10;11.23;;;;;;;;;;5089459;28;20119;-80
2022/04/27 03:24:52;;;;;;;17.53;10.97;;;;;;;;;;5090338;28;20042;-77
2022/04/27 03:27:17;;;;;;;21.70;12.07;;;;;;;;;;5088220;28;20028;-81
2022/04/27 03:29:44;;;;;;;16.20;10.87;;;;;;;;;;5088270;28;20050;-78
2022/04/27 03:32:10;;;;;;;20.93;10.57;;;;;;;;;;5089989;28;20043;-78
2022/04/27 03:34:36;;;;;;;18.77;9.57;;;;;;;;;;5089760;28;20031;-78
2022/04/27 03:37:01;;;;;;;16.13;10.17;;;;;;;;;;5088873;28;20030;-78
2022/04/27 03:39:28;;;;;;;17.27;11.27;;;;;;;;;;5089641;28;20043;-77
2022/04/27 03:41:53;;;;;;;17.53;10.67;;;;;;;;;;5090023;28;20039;-77
2022/04/27 03:44:19;;;;;;;18.93;11.10;;;;;;;;;;5088388;28;20032;-77
2022/04/27 03:46:45;;;;;;;19.73;11.13;;;;;;;;;;5088472;28;20034;-77
2022/04/27 03:49:10;;;;;;;19.17;10.83;;;;;;;;;;5089423;28;20348;-78
2022/04/27 03:51:36;;;;;;;18.20;11.40;;;;;;;;;;5089947;28;20061;-79
2022/04/27 03:54:01;;;;;;;16.40;11.23;;;;;;;;;;5088501;28;20297;-79
2022/04/27 03:56:27;;;;;;;17.50;10.87;;;;;;;;;;5087589;28;20542;-77
2022/04/27 03:58:52;;;;;;;17.23;11.53;;;;;;;;;;5088712;28;20329;-79
2022/04/27 04:01:18;;;;;;;21.53;11.67;;;;;;;;;;5089234;28;20103;-79
2022/04/27 04:03:43;;;;;;;21.40;12.00;;;;;;;;;;5089479;28;20063;-76
2022/04/27 04:06:09;;;;;;;18.43;11.80;;;;;;;;;;5089170;28;20040;-78
2022/04/27 04:08:34;;;;;;;19.80;11.03;;;;;;;;;;5089811;28;20028;-77
2022/04/27 04:11:00;;;;;;;19.40;11.30;;;;;;;;;;5087541;28;20040;-77
2022/04/27 04:13:25;;;;;;;18.43;10.50;;;;;;;;;;5089100;28;20396;-78
2022/04/27 04:15:51;;;;;;;19.90;11.50;;;;;;;;;;5090670;28;20108;-76
2022/04/27 04:18:17;;;;;;;20.47;12.10;;;;;;;;;;5093061;28;20036;-77
2022/04/27 04:20:44;;;;;;;19.37;11.07;;;;;;;;;;5091814;28;20036;-77
2022/04/27 04:23:10;;;;;;;20.80;13.13;;;;;;;;;;5092145;28;20394;-76
2022/04/27 04:28:31;;;;;;;16.93;10.57;;;;;;;;;;5093389;28;20027;-77
2022/04/27 04:30:58;;;;;;;22.67;11.80;;;;;;;;;;5091551;28;20078;-77
2022/04/27 04:33:24;;;;;;;21.47;11.60;;;;;;;;;;5084667;28;20328;-78
2022/04/27 04:35:50;;;;;;;20.60;11.33;;;;;;;;;;5087004;28;20031;-77
2022/04/27 04:38:16;;;;;;;25.07;12.37;;;;;;;;;;5087318;28;20024;-78
2022/04/27 04:40:42;;;;;;;18.63;12.13;;;;;;;;;;5092102;28;20032;-77
2022/04/27 04:43:10;;;;;;;22.93;11.63;;;;;;;;;;5092328;28;20390;-77
2022/04/27 04:45:36;;;;;;;19.90;11.33;;;;;;;;;;5086415;28;20032;-78
2022/04/27 04:48:02;;;;;;;24.47;11.73;;;;;;;;;;5091548;28;20073;-76
2022/04/27 04:50:27;;;;;;;17.47;12.27;;;;;;;;;;5091605;28;20028;-80
2022/04/27 04:52:53;;;;;;;17.40;11.37;;;;;;;;;;5091546;28;20111;-79
2022/04/27 04:55:18;;;;;;;19.97;11.07;;;;;;;;;;5092825;28;20055;-79
2022/04/27 04:57:44;;;;;;;21.30;11.80;;;;;;;;;;5093316;28;20032;-78
2022/04/27 05:00:10;;;;;;;19.20;11.00;;;;;;;;;;5075181;28;20032;-76
2022/04/27 05:02:36;;;;;;;23.87;11.63;;;;;;;;;;5093030;28;20500;-75
2022/04/27 05:05:03;;;;;;;25.80;12.30;;;;;;;;;;5085689;28;20029;-78
2022/04/27 05:07:30;;;;;;;19.33;11.17;;;;;;;;;;5088947;28;20032;-79
2022/04/27 05:09:55;;;;;;;17.53;10.80;;;;;;;;;;5092465;28;20032;-76
2022/04/27 05:12:22;;;;;;;18.67;11.27;;;;;;;;;;5091906;28;20059;-77
2022/04/27 05:14:48;;;;;;;17.57;11.37;;;;;;;;;;5085480;28;20024;-79
2022/04/27 05:17:14;;;;;;;21.17;12.10;;;;;;;;;;5086082;28;20501;-78
2022/04/27 05:19:39;;;;;;;22.27;12.30;;;;;;;;;;5092100;28;20027;-76
2022/04/27 05:22:05;;;;;;;20.10;11.90;;;;;;;;;;5087391;28;20120;-76
2022/04/27 05:24:30;;;;;;;20.17;11.73;;;;;;;;;;5089633;28;20028;-76
2022/04/27 05:26:56;;;;;;;19.67;11.87;;;;;;;;;;5088900;28;20047;-77
2022/04/27 05:32:06;;;;;;;19.00;11.27;;;;;;;;;;5084859;28;20035;-79
2022/04/27 05:34:33;;;;;;;26.07;12.90;;;;;;;;;;5089820;28;20016;-78
2022/04/27 05:37:00;;;;;;;19.67;12.00;;;;;;;;;;5091503;28;20038;-78
2022/04/27 05:39:26;;;;;;;16.67;11.33;;;;;;;;;;5086134;28;20110;-76
2022/04/27 05:41:55;;;;;;;22.30;12.07;;;;;;;;;;5083309;28;20115;-78
2022/04/27 05:44:24;;;;;;;18.87;12.63;;;;;;;;;;5065956;28;20040;-77
2022/04/27 05:46:51;;;;;;;20.73;11.63;;;;;;;;;;5084535;28;20670;-78
2022/04/27 05:49:18;;;;;;;19.40;11.93;;;;;;;;;;5085497;28;20039;-77
2022/04/27 05:51:44;;;;;;;19.60;11.03;;;;;;;;;;5086517;28;20038;-76
2022/04/27 05:54:09;;;;;;;21.67;11.13;;;;;;;;;;5078570;28;20476;-77
2022/04/27 05:56:35;;;;;;;24.33;12.30;;;;;;;;;;5091555;28;20122;-78
2022/04/27 05:59:02;;;;;;;22.73;12.50;;;;;;;;;;5089081;28;20029;-78
2022/04/27 06:01:29;;;;;;;25.07;11.83;;;;;;;;;;5080855;28;20075;-79
2022/04/27 06:03:56;;;;;;;20.27;12.53;;;;;;;;;;5089015;28;20063;-77
2022/04/27 06:06:23;;;;;;;22.33;12.10;;;;;;;;;;5086896;28;20020;-76
2022/04/27 06:08:56;;;;;;;23.87;12.37;;;;;;;;;;5087590;28;20044;-77
2022/04/27 06:11:22;;;;;;;24.47;13.73;;;;;;;;;;5091176;28;20111;-79
2022/04/27 06:13:49;;;;;;;22.10;12.33;;;;;;;;;;5082451;28;20404;-77
2022/04/27 06:16:16;;;;;;;21.77;13.13;;;;;;;;;;5086166;28;20080;-77
2022/04/27 06:18:42;;;;;;;24.77;11.93;;;;;;;;;;5083967;28;20032;-79
2022/04/27 06:21:13;;;;;;;18.43;12.50;;;;;;;;;;5076437;28;20066;-78
2022/04/27 06:23:41;;;;;;;21.40;11.90;;;;;;;;;;5079511;28;20383;-77
2022/04/27 06:26:07;;;;;;;25.60;11.73;;;;;;;;;;5085724;28;20024;-78
2022/04/27 06:28:34;;;;;;;23.57;13.47;;;;;;;;;;5064137;28;20038;-76
2022/04/27 06:31:01;;;;;;;22.20;12.90;;;;;;;;;;5082582;28;20085;-80
2022/04/27 06:33:31;;;;;;;16.83;10.80;;;;;;;;;;5083206;28;20012;-80
2022/04/27 06:36:01;;;;;;;19.83;11.47;;;;;;;;;;5070451;28;20121;-76
2022/04/27 06:38:28;;;;;;;18.17;11.53;;;;;;;;;;5081726;28;20966;-78
2022/04/27 06:40:57;;;;;;;22.40;11.87;;;;;;;;;;5076715;28;20024;-79
2022/04/27 06:43:23;;;;;;;25.57;13.50;;;;;;;;;;5082664;28;20028;-77
2022/04/27 06:45:49;;;;;;;18.33;11.03;;;;;;;;;;5081353;28;20043;-79
2022/04/27 06:48:15;;;;;;;20.03;11.90;;;;;;;;;;5078758;28;20028;-78
2022/04/27 06:50:44;;;;;;;21.07;11.23;;;;;;;;;;5073874;28;20035;-79
2022/04/27 06:53:14;;;;;;;20.40;12.70;;;;;;;;;;5077946;28;20092;-78
2022/04/27 06:55:43;;;;;;;18.05;10.60;;;;;;;;;;5076336;28;20032;-80
2022/04/27 06:58:09;;;;;;;20.98;12.27;;;;;;;;;;5088537;28;20023;-79
2022/04/27 07:00:37;;;;;;;16.50;10.27;;;;;;;;;;5084424;28;20024;-77
2022/04/27 07:03:06;;;;;;;15.65;10.52;;;;;;;;;;5077550;28;20098;-78
2022/04/27 07:05:32;;;;;;;16.83;10.57;;;;;;;;;;5084661;28;20321;-77
2022/04/27 07:07:59;;;;;;;19.60;10.93;;;;;;;;;;5078060;28;20027;-77
2022/04/27 07:10:25;;;;;;;17.05;11.52;;;;;;;;;;5078444;28;20539;-78
2022/04/27 07:12:52;;;;;;;19.92;11.32;;;;;;;;;;5075711;28;20055;-76
2022/04/27 07:15:18;;;;;;;16.35;11.43;;;;;;;;;;5080555;28;20793;-78
2022/04/27 07:17:44;;;;;;;18.73;11.77;;;;;;;;;;5074451;28;20402;-77
2022/04/27 07:20:10;;;;;;;22.52;13.35;;;;;;;;;;5081580;28;20122;-80
2022/04/27 07:22:39;;;;;;;18.17;11.45;;;;;;;;;;5070680;28;20341;-78
2022/04/27 07:25:05;;;;;;;16.55;11.25;;;;;;;;;;5077800;28;20515;-80
2022/04/27 07:27:35;;;;;;;20.90;11.75;;;;;;;;;;5082294;28;20028;-77
2022/04/27 07:30:01;;;;;;;15.38;11.25;;;;;;;;;;5079865;28;20021;-78
2022/04/27 07:32:27;;;;;;;19.77;11.32;;;;;;;;;;5085123;28;20142;-81
2022/04/27 07:34:56;;;;;;;24.35;11.48;;;;;;;;;;5071061;28;20501;-81
2022/04/27 07:37:22;;;;;;;26.40;13.00;;;;;;;;;;5079899;28;20032;-76
2022/04/27 07:39:52;;;;;;;21.85;12.00;;;;;;;;;;5084431;28;20023;-78
2022/04/27 07:42:19;;;;;;;15.48;10.07;;;;;;;;;;5081129;28;20414;-79
2022/04/27 07:44:47;;;;;;;21.90;12.68;;;;;;;;;;5078998;28;20442;-78
2022/04/27 07:47:16;;;;;;;16.50;10.70;;;;;;;;;;5081477;28;20031;-78
2022/04/27 07:49:44;;;;;;;18.23;10.02;;;;;;;;;;5083996;28;20032;-78
2022/04/27 07:52:10;;;;;;;15.38;10.13;;;;;;;;;;5082607;28;20119;-79
2022/04/27 07:54:36;;;;;;;16.17;9.32;;;;;;;;;;5088782;28;20390;-78
2022/04/27 07:57:03;;;;;;;18.70;9.80;;;;;;;;;;5091758;28;20332;-82
2022/04/27 07:59:30;;;;;;;19.95;9.90;;;;;;;;;;5088185;28;20497;-79
2022/04/27 08:01:56;;;;;;;17.05;10.00;;;;;;;;;;5088668;28;20576;-77
2022/04/27 08:04:22;;;;;;;14.52;9.27;;;;;;;;;;5090431;28;20607;-78
2022/04/27 08:06:55;;;;;;;12.40;9.18;;;;;;;;;;5084786;28;20032;-77
2022/04/27 08:09:41;;;;;;;17.23;9.23;;;;;;;;;;5084981;28;20427;-78
2022/04/27 08:12:13;;;;;;;19.65;9.00;;;;;;;;;;5079530;28;20098;-78
2022/04/27 08:14:40;;;;;;;12.35;8.45;;;;;;;;;;5085390;28;20797;-78
2022/04/27 08:17:06;;;;;;;15.55;8.57;;;;;;;;;;5080291;28;20032;-78
2022/04/27 08:19:32;;;;;;;10.57;7.60;;;;;;;;;;5086023;28;20038;-78
2022/04/27 08:21:59;;;;;;;11.63;7.63;;;;;;;;;;5081068;28;20051;-77
2022/04/27 08:24:28;;;;;;;13.73;7.10;;;;;;;;;;5082734;28;20116;-79
2022/04/27 08:26:58;;;;;;;14.10;6.85;;;;;;;;;;5083785;28;20054;-76
2022/04/27 08:29:47;;;;;;;12.15;7.40;;;;;;;;;;5088725;28;20031;-78
2022/04/27 08:32:14;;;;;;;12.63;6.88;;;;;;;;;;5090407;28;20374;-78
2022/04/27 08:34:39;;;;;;;12.43;7.80;;;;;;;;;;5083085;28;20553;-78
2022/04/27 08:37:06;;;;;;;12.00;7.35;;;;;;;;;;5084898;28;20066;-79
2022/04/27 08:39:34;;;;;;;14.57;6.97;;;;;;;;;;5085392;28;20020;-78
2022/04/27 08:42:00;;;;;;;14.70;7.30;;;;;;;;;;5084768;28;20111;-79
2022/04/27 08:44:35;;;;;;;14.60;6.05;;;;;;;;;;5081073;28;20484;-77
2022/04/27 08:47:09;;;;;;;9.40;5.43;;;;;;;;;;5092662;28;20490;-80
2022/04/27 08:49:35;;;;;;;11.77;7.30;;;;;;;;;;5085351;28;20027;-79
2022/04/27 08:52:13;;;;;;;7.70;5.38;;;;;;;;;;5087665;28;20472;-81
2022/04/27 08:54:42;;;;;;;8.00;4.63;;;;;;;;;;5083917;28;20583;-77
2022/04/27 08:57:30;;;;;;;8.23;4.88;;;;;;;;;;5083974;28;20107;-78
2022/04/27 08:59:56;;;;;;;8.45;4.78;;;;;;;;;;5077196;28;20377;-79
2022/04/27 09:02:26;;;;;;;11.13;5.20;;;;;;;;;;5081194;28;20027;-80
2022/04/27 09:05:15;;;;;;;7.55;5.15;;;;;;;;;;5081780;28;20088;-79
2022/04/27 09:07:51;;;;;;;10.73;6.78;;;;;;;;;;5087708;28;20047;-78
2022/04/27 09:10:24;;;;;;;7.07;4.97;;;;;;;;;;5075597;28;20029;-78
2022/04/27 09:12:59;;;;;;;9.10;4.85;;;;;;;;;;5079629;28;20049;-78
2022/04/27 09:15:26;;;;;;;9.10;5.07;;;;;;;;;;5072437;28;20506;-76
2022/04/27 09:23:38;;;;;;;7.45;4.38;;;;;;;;;;5079276;28;20132;-78
2022/04/27 09:26:19;;;;;;;6.55;4.47;;;;;;;;;;5072851;28;20495;-77
2022/04/27 09:28:55;;;;;;;5.57;4.03;;;;;;;;;;5081203;28;20110;-77
2022/04/27 09:31:37;;;;;;;5.47;4.10;;;;;;;;;;5081816;28;20024;-80
2022/04/27 09:37:13;;;;;;;7.07;4.60;;;;;;;;;;5083619;28;20224;-78
2022/04/27 09:40:04;;;;;;;6.35;4.28;;;;;;;;;;5075109;28;20036;-78
2022/04/27 09:42:35;;;;;;;4.80;3.72;;;;;;;;;;5077124;28;20046;-79
2022/04/27 09:45:28;;;;;;;6.72;4.03;;;;;;;;;;5088213;28;20070;-77
2022/04/27 09:48:08;;;;;;;8.25;4.68;;;;;;;;;;5087204;28;20031;-80
2022/04/27 09:50:48;;;;;;;8.45;4.05;;;;;;;;;;5078074;28;20545;-76
2022/04/27 09:53:18;;;;;;;9.52;4.20;;;;;;;;;;5084058;28;20456;-77
2022/04/27 09:56:01;;;;;;;6.43;3.95;;;;;;;;;;5085765;28;20432;-77
2022/04/27 09:58:34;;;;;;;7.50;3.80;;;;;;;;;;5086761;28;20028;-78
2022/04/27 10:01:07;;;;;;;5.43;3.47;;;;;;;;;;5063205;28;20344;-76
2022/04/27 10:03:36;;;;;;;7.25;4.07;;;;;;;;;;5086511;28;20356;-77
2022/04/27 10:06:06;;;;;;;9.85;4.65;;;;;;;;;;5073320;28;20404;-79
2022/04/27 10:08:39;;;;;;;6.18;3.45;;;;;;;;;;5075649;28;20043;-78
2022/04/27 10:11:11;;;;;;;7.07;2.92;;;;;;;;;;5071591;28;20036;-75
2022/04/27 10:13:47;;;;;;;3.90;2.63;;;;;;;;;;5078582;28;20588;-79
2022/04/27 10:16:16;;;;;;;4.78;2.70;;;;;;;;;;5084674;28;20451;-79
2022/04/27 10:18:43;;;;;;;4.75;3.03;;;;;;;;;;5079317;28;20028;-80
2022/04/27 10:21:12;;;;;;;5.90;3.20;;;;;;;;;;5091555;28;20038;-80
2022/04/27 10:23:44;;;;;;;6.60;3.70;;;;;;;;;;5083180;28;20028;-77
2022/04/27 10:26:29;;;;;;;9.43;3.38;;;;;;;;;;5085949;28;20705;-78
2022/04/27 10:28:58;;;;;;;5.65;3.15;;;;;;;;;;5086890;28;20396;-78
2022/04/27 10:31:51;;;;;;;7.03;3.38;;;;;;;;;;5090261;28;20048;-78
2022/04/27 10:34:27;;;;;;;5.60;3.72;;;;;;;;;;5078619;28;20017;-79
2022/04/27 10:36:55;;;;;;;8.55;3.72;;;;;;;;;;5078828;28;20039;-77
2022/04/27 10:39:23;;;;;;;6.63;3.80;;;;;;;;;;5083190;28;20442;-76
2022/04/27 10:42:05;;;;;;;8.48;4.32;;;;;;;;;;5085256;28;20100;-78
2022/04/27 10:44:58;;;;;;;4.97;3.70;;;;;;;;;;5085205;28;20471;-76
2022/04/27 10:47:24;;;;;;;11.18;4.32;;;;;;;;;;5071304;28;20039;-78
2022/04/27 10:50:21;;;;;;;7.97;3.88;;;;;;;;;;5087528;28;20047;-80
2022/04/27 10:52:52;;;;;;;5.65;3.80;;;;;;;;;;5083375;28;20028;-80
2022/04/27 10:55:37;;;;;;;5.32;3.70;;;;;;;;;;5077065;28;20024;-78
2022/04/27 10:58:28;;;;;;;4.80;3.33;;;;;;;;;;5085861;28;20189;-78
2022/04/27 11:01:03;;;;;;;7.82;3.90;;;;;;;;;;5075401;28;20028;-79
2022/04/27 11:03:30;;;;;;;4.63;3.40;;;;;;;;;;5077533;28;20391;-78
2022/04/27 11:06:01;;;;;;;7.35;3.85;;;;;;;;;;5080278;28;20065;-77
2022/04/27 11:08:53;;;;;;;9.55;4.88;;;;;;;;;;5087249;28;20483;-79
2022/04/27 11:11:25;;;;;;;6.10;4.53;;;;;;;;;;5088101;28;20040;-79
2022/04/27 11:13:58;;;;;;;7.65;4.22;;;;;;;;;;5079989;28;20090;-80
2022/04/27 11:16:52;;;;;;;11.10;4.65;;;;;;;;;;5083106;28;20024;-78
2022/04/27 11:19:21;;;;;;;7.07;4.15;;;;;;;;;;5068043;28;20036;-78
2022/04/27 11:21:48;;;;;;;6.90;4.32;;;;;;;;;;5083341;28;20036;-78
2022/04/27 11:24:22;;;;;;;6.47;3.60;;;;;;;;;;5087626;28;20092;-79
2022/04/27 11:26:48;;;;;;;8.57;4.47;;;;;;;;;;5077211;28;20028;-78
2022/04/27 11:29:15;;;;;;;9.70;4.25;;;;;;;;;;5068665;28;20499;-81
2022/04/27 11:31:48;;;;;;;9.10;4.13;;;;;;;;;;5073272;28;20529;-78
2022/04/27 11:34:28;;;;;;;6.03;3.95;;;;;;;;;;5087247;28;20020;-78
2022/04/27 11:36:55;;;;;;;6.40;3.42;;;;;;;;;;5080387;28;20516;-78
2022/04/27 11:39:25;;;;;;;5.13;3.72;;;;;;;;;;5079798;28;20028;-80
2022/04/27 11:42:02;;;;;;;9.52;3.80;;;;;;;;;;5081080;28;20070;-79
2022/04/27 11:44:32;;;;;;;4.20;3.15;;;;;;;;;;5075707;28;20068;-78
2022/04/27 11:46:58;;;;;;;4.97;3.25;;;;;;;;;;5084811;28;20379;-78
2022/04/27 11:49:27;;;;;;;7.82;4.05;;;;;;;;;;5080732;28;20024;-79
2022/04/27 11:51:55;;;;;;;4.95;3.33;;;;;;;;;;5081516;28;20138;-76
2022/04/27 11:54:28;;;;;;;13.82;4.43;;;;;;;;;;5083137;28;20036;-80
2022/04/27 11:57:03;;;;;;;7.60;4.68;;;;;;;;;;5083984;28;20422;-77
2022/04/27 12:00:05;;;;;;;9.50;5.15;;;;;;;;;;5080677;28;20176;-78
2022/04/27 12:02:35;;;;;;;9.75;5.18;;;;;;;;;;5060745;28;20036;-77
2022/04/27 12:05:07;;;;;;;7.65;4.47;;;;;;;;;;5085139;28;20036;-81
2022/04/27 12:07:46;;;;;;;8.95;4.13;;;;;;;;;;5081823;28;20036;-75
2022/04/27 12:10:14;;;;;;;11.13;4.78;;;;;;;;;;5080844;28;20494;-77
2022/04/27 12:12:43;;;;;;;8.23;5.03;;;;;;;;;;5080433;28;20047;-78
2022/04/27 12:15:14;;;;;;;8.43;5.22;;;;;;;;;;5085771;28;20567;-78
2022/04/27 12:18:16;;;;;;;6.35;4.60;;;;;;;;;;5081034;28;20040;-78
2022/04/27 12:20:44;;;;;;;9.07;5.60;;;;;;;;;;5085182;28;20075;-78
2022/04/27 12:23:17;;;;;;;21.63;9.50;;;;;;;;;;5085559;28;20032;-78
2022/04/27 12:26:12;;;;;;;8.10;4.80;;;;;;;;;;5082341;28;20478;-80
2022/04/27 12:28:51;;;;;;;6.88;4.07;;;;;;;;;;5075001;28;20043;-79
2022/04/27 12:31:23;;;;;;;8.32;3.90;;;;;;;;;;5084476;28;20034;-79
2022/04/27 12:33:55;;;;;;;6.65;4.28;;;;;;;;;;5072625;28;20036;-80
2022/04/27 12:39:37;;;;;;;4.85;3.92;;;;;;;;;;5084213;28;20043;-79
2022/04/27 12:42:10;;;;;;;5.72;4.00;;;;;;;;;;5073534;28;20032;-80
2022/04/27 12:44:44;;;;;;;5.68;4.15;;;;;;;;;;5086427;28;20077;-76
2022/04/27 12:47:16;;;;;;;5.38;3.40;;;;;;;;;;5087062;28;20073;-77
2022/04/27 12:50:00;;;;;;;8.07;4.18;;;;;;;;;;5089910;28;20039;-78
2022/04/27 12:52:30;;;;;;;5.43;3.50;;;;;;;;;;5075768;28;20403;-78
2022/04/27 12:55:10;;;;;;;8.27;3.95;;;;;;;;;;5081797;28;20036;-78
2022/04/27 12:57:50;;;;;;;7.55;4.20;;;;;;;;;;5074705;28;20425;-80
2022/04/27 13:00:22;;;;;;;7.63;3.90;;;;;;;;;;5079382;28;20047;-77
2022/04/27 13:02:49;;;;;;;7.32;3.90;;;;;;;;;;5081599;28;20346;-79
2022/04/27 13:05:15;;;;;;;7.68;4.00;;;;;;;;;;5081415;28;20402;-80
2022/04/27 13:07:42;;;;;;;8.60;4.18;;;;;;;;;;5078649;28;20046;-83
2022/04/27 13:12:53;;;;;;;6.57;3.78;;;;;;;;;;5077250;28;20055;-76
2022/04/27 13:15:19;;;;;;;7.50;3.85;;;;;;;;;;5076297;28;20059;-77
2022/04/27 13:17:48;;;;;;;12.40;4.60;;;;;;;;;;5076505;28;20036;-78
2022/04/27 13:20:18;;;;;;;9.35;4.32;;;;;;;;;;5079009;28;20028;-79
2022/04/27 13:22:43;;;;;;;9.82;5.00;;;;;;;;;;5084728;28;20024;-79
2022/04/27 13:25:09;;;;;;;4.22;3.22;;;;;;;;;;5081157;28;20093;-77
2022/04/27 13:27:35;;;;;;;6.03;3.85;;;;;;;;;;5075376;28;20024;-76
2022/04/27 13:30:00;;;;;;;7.63;3.65;;;;;;;;;;5080024;28;20038;-78
2022/04/27 13:32:26;;;;;;;7.90;3.78;;;;;;;;;;5082413;28;20072;-78
2022/04/27 13:34:52;;;;;;;6.93;4.35;;;;;;;;;;5078360;28;20414;-77
2022/04/27 13:37:20;;;;;;;4.65;2.90;;;;;;;;;;5088481;28;20040;-78
2022/04/27 13:39:47;;;;;;;8.68;3.70;;;;;;;;;;5080690;28;20353;-79
2022/04/27 13:42:13;;;;;;;10.45;4.00;;;;;;;;;;5082564;28;20074;-77
2022/04/27 13:44:38;;;;;;;6.72;3.63;;;;;;;;;;5079410;28;20375;-79
2022/04/27 13:47:05;;;;;;;5.57;3.72;;;;;;;;;;5085174;28;20024;-78
2022/04/27 13:49:30;;;;;;;5.22;3.47;;;;;;;;;;5087756;28;20031;-78
2022/04/27 13:51:57;;;;;;;7.18;3.80;;;;;;;;;;5085358;28;20084;-79
2022/04/27 13:54:23;;;;;;;8.85;3.33;;;;;;;;;;5085438;28;20853;-80
2022/04/27 13:56:48;;;;;;;7.25;3.90;;;;;;;;;;5076099;28;20032;-79
2022/04/27 13:59:14;;;;;;;11.75;3.75;;;;;;;;;;5082515;28;20463;-81
2022/04/27 14:01:40;;;;;;;8.65;3.33;;;;;;;;;;5080669;28;20039;-80
2022/04/27 14:04:09;;;;;;;5.82;3.63;;;;;;;;;;5083709;28;20020;-81
2022/04/27 14:06:35;;;;;;;6.97;3.85;;;;;;;;;;5088891;28;20157;-80
2022/04/27 14:09:05;;;;;;;4.78;3.63;;;;;;;;;;5080538;28;20111;-79
2022/04/27 14:14:14;;;;;;;4.75;3.00;;;;;;;;;;5076610;28;20081;-80
2022/04/27 14:19:24;;;;;;;9.50;4.47;;;;;;;;;;5077989;28;20546;-81
2022/04/27 14:21:53;;;;;;;7.40;3.80;;;;;;;;;;5085033;28;20036;-79
2022/04/27 14:24:19;;;;;;;8.23;4.22;;;;;;;;;;5077831;28;20399;-81
2022/04/27 14:26:44;;;;;;;11.35;4.30;;;;;;;;;;5075321;28;20028;-79
2022/04/27 14:29:10;;;;;;;6.88;4.05;;;;;;;;;;5079944;28;20526;-81
2022/04/27 14:31:35;;;;;;;6.55;3.50;;;;;;;;;;5078163;28;20049;-79
2022/04/27 14:34:01;;;;;;;12.10;4.72;;;;;;;;;;5077919;28;20032;-79
2022/04/27 14:36:27;;;;;;;7.75;3.97;;;;;;;;;;5072365;28;20035;-78
2022/04/27 14:38:53;;;;;;;8.23;4.13;;;;;;;;;;5076704;28;20043;-79
2022/04/27 14:41:20;;;;;;;6.70;3.92;;;;;;;;;;5080070;28;20024;-78
2022/04/27 14:43:46;;;;;;;8.05;3.63;;;;;;;;;;5056427;28;20103;-78
2022/04/27 14:46:14;;;;;;;6.95;4.32;;;;;;;;;;5080001;28;20567;-77
2022/04/27 14:48:42;;;;;;;10.35;4.38;;;;;;;;;;5082263;28;20052;-78
2022/04/27 14:51:08;;;;;;;6.35;4.25;;;;;;;;;;5076734;28;20534;-79
2022/04/27 14:53:35;;;;;;;5.70;4.07;;;;;;;;;;5078145;28;20024;-78
2022/04/27 14:56:02;;;;;;;7.40;3.85;;;;;;;;;;5083158;28;20077;-79
2022/04/27 14:58:27;;;;;;;8.45;4.72;;;;;;;;;;5079985;28;20028;-79
2022/04/27 15:00:54;;;;;;;4.20;3.17;;;;;;;;;;5077690;28;20028;-78
2022/04/27 15:03:20;;;;;;;5.45;3.30;;;;;;;;;;5065402;28;20407;-77
2022/04/27 15:05:46;;;;;;;9.85;5.80;;;;;;;;;;5080132;28;20028;-78
2022/04/27 15:08:12;;;;;;;6.22;3.53;;;;;;;;;;5073359;28;20028;-80
2022/04/27 15:10:40;;;;;;;6.75;4.13;;;;;;;;;;5082953;28;20031;-78